Terminal Aerodrome Forecast
Issued by NWS

Home | Current Version | Previous Version | Graphics & Text | Print | Product List | Glossary On
Versions: 1 2 3 4 5 6 7 8 9 10 11 12 13
000
FTUS45 KGGW 181720
TAFGDV
TAF
KGDV 181720Z 1818/1918 24010KT P6SM BKN090
     FM182100 28013KT P6SM SCT100
     FM190000 25006KT P6SM SKC
     FM191200 23008KT P6SM FEW150=

USA.gov is the U.S. government's official web portal to all federal, state and local government web resources and services.